createdAt,value
2018-05-03T00:01:06.346Z,99974.57
2018-05-03T00:03:36.211Z,99975.36
2018-05-03T00:06:02.813Z,99973.06
2018-05-03T00:08:29.461Z,99965.27
2018-05-03T00:10:56.105Z,99974.34
2018-05-03T00:13:26.599Z,99971.80
2018-05-03T00:15:53.201Z,99972.86
2018-05-03T00:18:20.163Z,99966.95
2018-05-03T00:20:46.693Z,99976.31
2018-05-03T00:23:17.249Z,99969.41
2018-05-03T00:25:44.428Z,99964.23
2018-05-03T00:28:11.074Z,99960.81
2018-05-03T00:30:38.433Z,99968.11
2018-05-03T00:33:08.157Z,99962.38
2018-05-03T00:35:34.817Z,99966.85
2018-05-03T00:38:01.475Z,99965.55
2018-05-03T00:40:28.126Z,99965.98
2018-05-03T00:42:56.163Z,99960.36
2018-05-03T00:45:22.874Z,99960.58
2018-05-03T00:47:49.758Z,99960.42
2018-05-03T00:50:16.909Z,99958.16
2018-05-03T00:52:47.429Z,99955.08
2018-05-03T00:55:14.112Z,99960.88
2018-05-03T00:57:40.702Z,99958.68
2018-05-03T01:00:07.272Z,99953.92
2018-05-03T01:02:48.225Z,99958.73
2018-05-03T01:05:14.759Z,99955.56
2018-05-03T01:07:41.383Z,99953.41
2018-05-03T01:10:08.156Z,99950.92
2018-05-03T01:12:45.330Z,99957.53
2018-05-03T01:15:11.892Z,99957.94
2018-05-03T01:17:38.514Z,99957.42
2018-05-03T01:20:05.045Z,99957.91
2018-05-03T01:22:35.255Z,99957.09
2018-05-03T01:25:01.890Z,99960.73
2018-05-03T01:27:28.416Z,99953.59
2018-05-03T01:29:55.165Z,99949.47
2018-05-03T01:32:26.516Z,99942.84
2018-05-03T01:35:04.946Z,99940.48
2018-05-03T01:37:31.594Z,99937.33
2018-05-03T01:39:59.565Z,99930.79
2018-05-03T01:42:26.248Z,99927.37
2018-05-03T01:44:52.903Z,99928.23
2018-05-03T01:47:19.493Z,99927.05
2018-05-03T01:49:46.229Z,99922.42
2018-05-03T01:52:14.408Z,99918.71
2018-05-03T01:54:41.133Z,99927.24
2018-05-03T01:57:07.701Z,99918.08
2018-05-03T01:59:34.704Z,99916.15
2018-05-03T02:02:01.257Z,99913.19
2018-05-03T02:04:27.888Z,99918.27
2018-05-03T02:06:54.797Z,99906.31
2018-05-03T02:09:21.522Z,99906.77
2018-05-03T02:11:48.286Z,99900.72
2018-05-03T02:14:15.990Z,99899.45
2018-05-03T02:16:42.609Z,99907.13
2018-05-03T02:19:09.492Z,99905.78
2018-05-03T02:21:36.139Z,99907.98
2018-05-03T02:24:06.101Z,99910.91
2018-05-03T02:26:32.898Z,99902.11
2018-05-03T02:28:59.482Z,99903.52
2018-05-03T02:31:25.989Z,99905.50
2018-05-03T02:33:56.096Z,99908.26
2018-05-03T02:36:22.632Z,99910.19
2018-05-03T02:38:49.382Z,99907.00
2018-05-03T02:41:16.096Z,99914.16
2018-05-03T02:43:43.045Z,99912.41
2018-05-03T02:46:09.963Z,99906.94
2018-05-03T02:48:36.601Z,99910.98
2018-05-03T02:51:03.142Z,99918.38
2018-05-03T02:53:37.396Z,99923.10
2018-05-03T02:56:04.684Z,99916.36
2018-05-03T02:58:43.416Z,99918.98
2018-05-03T03:01:28.171Z,99913.38
2018-05-03T03:04:16.943Z,99920.75
2018-05-03T03:13:36.097Z,99909.39
2018-05-03T03:16:20.889Z,99903.70
2018-05-03T03:19:05.490Z,99907.08
2018-05-03T03:24:47.944Z,99918.81
2018-05-03T03:27:32.837Z,99910.28
2018-05-03T03:30:11.554Z,99917.23
2018-05-03T03:32:56.524Z,99924.91
2018-05-03T03:38:46.060Z,99929.30
2018-05-03T03:41:24.734Z,99930.42
2018-05-03T03:44:08.916Z,99933.11
2018-05-03T03:46:35.737Z,99941.34
2018-05-03T03:49:02.490Z,99937.19
2018-05-03T03:51:29.264Z,99943.67
2018-05-03T03:53:59.065Z,99940.87
2018-05-03T03:56:25.672Z,99945.64
2018-05-03T03:58:52.532Z,99942.12
2018-05-03T04:01:19.226Z,99943.54
2018-05-03T04:03:47.162Z,99945.22
2018-05-03T04:06:13.723Z,99949.03
2018-05-03T04:08:40.497Z,99948.83
2018-05-03T04:11:07.155Z,99942.41
2018-05-03T04:13:40.723Z,99941.92
2018-05-03T04:16:07.460Z,99943.54
2018-05-03T04:18:46.012Z,99955.80
2018-05-03T04:21:25.291Z,99952.88
2018-05-03T04:24:08.217Z,99949.81
2018-05-03T04:26:34.970Z,99953.70
2018-05-03T04:29:01.565Z,99945.34
2018-05-03T04:31:28.272Z,99947.64
2018-05-03T04:33:59.192Z,99941.84
2018-05-03T04:36:25.743Z,99941.93
2018-05-03T04:38:52.814Z,99940.58
2018-05-03T04:41:19.378Z,99942.19
2018-05-03T04:43:53.114Z,99947.05
2018-05-03T04:46:19.789Z,99944.72
2018-05-03T04:48:46.405Z,99954.00
2018-05-03T04:51:13.024Z,99963.61
2018-05-03T04:53:42.929Z,99961.84
2018-05-03T04:56:09.617Z,99967.67
2018-05-03T04:58:36.337Z,99968.37
2018-05-03T05:01:03.736Z,99973.22
2018-05-03T05:03:35.083Z,99973.74
2018-05-03T05:06:02.155Z,99965.92
2018-05-03T05:08:28.779Z,99960.66
2018-05-03T05:10:55.428Z,99960.75
2018-05-03T05:13:22.598Z,99961.78
2018-05-03T05:15:49.282Z,99965.44
2018-05-03T05:18:16.001Z,99954.42
2018-05-03T05:20:42.484Z,99953.86
2018-05-03T05:23:12.266Z,99959.08
2018-05-03T05:25:39.110Z,99958.39
2018-05-03T05:28:05.740Z,99956.63
2018-05-03T05:30:32.413Z,99950.41
2018-05-03T05:33:05.104Z,99948.02
2018-05-03T05:35:31.742Z,99948.16
2018-05-03T05:37:58.414Z,99952.12
2018-05-03T05:40:25.222Z,99955.28
2018-05-03T05:42:55.013Z,99956.92
2018-05-03T05:45:21.657Z,99952.85
2018-05-03T05:47:48.306Z,99963.33
2018-05-03T05:50:14.951Z,99968.00
2018-05-03T05:52:47.918Z,99955.81
2018-05-03T05:55:14.617Z,99946.80
2018-05-03T05:57:41.450Z,99964.45
2018-05-03T06:00:08.121Z,99968.25
2018-05-03T06:02:56.297Z,99968.44
2018-05-03T06:05:23.031Z,99966.94
2018-05-03T06:07:49.745Z,99969.27
2018-05-03T06:10:17.583Z,99976.14
2018-05-03T06:13:01.413Z,99977.97
2018-05-03T06:15:28.031Z,99983.58
2018-05-03T06:17:54.693Z,99985.95
2018-05-03T06:20:21.422Z,99985.55
2018-05-03T06:22:51.250Z,99984.77
2018-05-03T06:25:18.182Z,99993.48
2018-05-03T06:27:44.890Z,100001.72
2018-05-03T06:30:11.655Z,99998.28
2018-05-03T06:32:41.807Z,99996.36
2018-05-03T06:35:08.427Z,100002.45
2018-05-03T06:37:35.107Z,99996.13
2018-05-03T06:40:01.610Z,100003.58
2018-05-03T06:42:31.730Z,99994.28
2018-05-03T06:44:58.389Z,99994.92
2018-05-03T06:47:25.399Z,99996.22
2018-05-03T06:49:52.198Z,99987.34
2018-05-03T06:52:21.882Z,99993.09
2018-05-03T06:54:48.510Z,99989.22
2018-05-03T06:57:15.253Z,99985.97
2018-05-03T06:59:41.926Z,99986.55
2018-05-03T07:02:21.453Z,99986.47
2018-05-03T07:04:48.395Z,99992.68
2018-05-03T07:07:15.070Z,99990.67
2018-05-03T07:09:41.625Z,99991.38
2018-05-03T07:12:11.994Z,99990.73
2018-05-03T07:14:38.630Z,99984.52
2018-05-03T07:17:05.389Z,99985.78
2018-05-03T07:19:32.340Z,99980.41
2018-05-03T07:21:59.009Z,99978.15
2018-05-03T07:24:25.734Z,99988.05
2018-05-03T07:26:52.235Z,99980.51
2018-05-03T07:29:18.935Z,99986.91
2018-05-03T07:31:51.269Z,99980.70
2018-05-03T07:34:18.369Z,99983.61
2018-05-03T07:36:45.078Z,99982.06
2018-05-03T07:39:11.711Z,99978.09
2018-05-03T07:41:45.731Z,99968.34
2018-05-03T07:44:12.334Z,99973.16
2018-05-03T07:46:38.910Z,99975.16
2018-05-03T07:49:05.461Z,99966.70
2018-05-03T07:51:35.641Z,99973.28
2018-05-03T07:54:02.253Z,99971.61
2018-05-03T07:56:28.826Z,99976.09
2018-05-03T07:58:55.498Z,99971.11
2018-05-03T08:01:23.113Z,99968.16
2018-05-03T08:03:49.745Z,99965.31
2018-05-03T08:06:16.306Z,99969.30
2018-05-03T08:08:43.031Z,99971.08
2018-05-03T08:11:09.971Z,99962.42
2018-05-03T08:13:36.609Z,99975.98
2018-05-03T08:16:03.221Z,99977.06
2018-05-03T08:18:29.978Z,99973.92
2018-05-03T08:20:56.504Z,99973.77
2018-05-03T08:23:24.125Z,99977.41
2018-05-03T08:25:50.698Z,99966.93
2018-05-03T08:28:18.202Z,99968.83
2018-05-03T08:30:44.805Z,99972.63
2018-05-03T08:33:14.911Z,99967.45
2018-05-03T08:35:41.746Z,99956.83
2018-05-03T08:38:08.480Z,99967.77
2018-05-03T08:40:35.134Z,99962.98
2018-05-03T08:43:06.962Z,99956.47
2018-05-03T08:45:33.632Z,99947.91
2018-05-03T08:48:00.131Z,99966.47
2018-05-03T08:50:26.773Z,99967.18
2018-05-03T08:52:58.232Z,99959.41
2018-05-03T08:55:24.977Z,99953.48
2018-05-03T08:57:51.638Z,99963.81
2018-05-03T09:00:18.245Z,99945.05
2018-05-03T09:02:46.048Z,99945.25
2018-05-03T09:05:12.557Z,99943.64
2018-05-03T09:07:39.228Z,99942.88
2018-05-03T09:10:05.813Z,99939.14
2018-05-03T09:12:33.966Z,99938.47
2018-05-03T09:15:01.233Z,99941.81
2018-05-03T09:17:27.958Z,99934.03
2018-05-03T09:19:54.645Z,99928.64
2018-05-03T09:22:22.440Z,99936.16
2018-05-03T09:24:49.268Z,99933.69
2018-05-03T09:27:15.856Z,99936.64
2018-05-03T09:29:42.560Z,99945.69
2018-05-03T09:32:14.733Z,99945.95
2018-05-03T09:34:41.365Z,99946.03
2018-05-03T09:37:08.582Z,99942.41
2018-05-03T09:39:35.361Z,99940.63
2018-05-03T09:42:07.867Z,99937.10
2018-05-03T09:44:34.922Z,99929.22
2018-05-03T09:47:01.513Z,99927.23
2018-05-03T09:49:28.529Z,99917.37
2018-05-03T09:52:00.338Z,99914.84
2018-05-03T09:54:26.894Z,99915.07
2018-05-03T09:56:53.518Z,99916.97
2018-05-03T09:59:20.140Z,99912.02
2018-05-03T10:01:48.087Z,99902.53
2018-05-03T10:04:14.868Z,99909.77
2018-05-03T10:06:41.979Z,99905.91
2018-05-03T10:09:08.548Z,99911.55
2018-05-03T10:11:38.650Z,99904.40
2018-05-03T10:14:05.246Z,99905.56
2018-05-03T10:16:31.848Z,99901.14
2018-05-03T10:18:58.642Z,99910.13
2018-05-03T10:21:28.557Z,99915.64
2018-05-03T10:23:55.054Z,99908.77
2018-05-03T10:26:21.735Z,99917.02
2018-05-03T10:28:48.370Z,99930.63
2018-05-03T10:31:18.694Z,99931.28
2018-05-03T10:33:45.399Z,99919.84
2018-05-03T10:36:12.295Z,99923.10
2018-05-03T10:38:38.788Z,99940.08
2018-05-03T10:41:09.494Z,99931.53
2018-05-03T10:43:36.196Z,99941.34
2018-05-03T10:46:02.753Z,99941.50
2018-05-03T10:48:29.433Z,99938.48
2018-05-03T10:50:59.517Z,99940.01
2018-05-03T10:53:26.122Z,99943.88
2018-05-03T10:55:52.725Z,99938.21
2018-05-03T10:58:19.408Z,99936.06
2018-05-03T11:00:52.497Z,99945.38
2018-05-03T11:03:19.125Z,99940.66
2018-05-03T11:05:45.786Z,99944.84
2018-05-03T11:08:12.469Z,99943.92
2018-05-03T11:10:39.224Z,99950.22
2018-05-03T11:13:06.036Z,99942.98
2018-05-03T11:15:32.807Z,99931.73
2018-05-03T11:17:59.630Z,99935.22
2018-05-03T11:20:26.355Z,99936.31
2018-05-03T11:22:54.162Z,99931.87
2018-05-03T11:25:20.812Z,99929.50
2018-05-03T11:27:47.543Z,99926.66
2018-05-03T11:30:14.218Z,99918.72
2018-05-03T11:32:46.569Z,99917.65
2018-05-03T11:35:13.195Z,99919.98
2018-05-03T11:37:39.967Z,99922.31
2018-05-03T11:40:06.645Z,99937.58
2018-05-03T11:42:37.207Z,99918.75
2018-05-03T11:45:03.990Z,99923.78
2018-05-03T11:47:30.692Z,99923.77
2018-05-03T11:49:57.374Z,99918.29
2018-05-03T11:52:28.065Z,99917.86
2018-05-03T11:54:54.773Z,99917.59
2018-05-03T11:57:21.427Z,99904.08
2018-05-03T11:59:47.940Z,99902.65
2018-05-03T12:02:19.843Z,99903.50
2018-05-03T12:04:46.420Z,99905.03
2018-05-03T12:07:13.123Z,99905.58
2018-05-03T12:09:39.739Z,99892.86
2018-05-03T12:12:12.859Z,99894.55
2018-05-03T12:14:39.615Z,99893.66
2018-05-03T12:17:06.253Z,99892.74
2018-05-03T12:19:32.844Z,99902.34
2018-05-03T12:22:04.161Z,99892.77
2018-05-03T12:24:31.152Z,99889.12
2018-05-03T12:26:57.885Z,99883.34
2018-05-03T12:29:24.870Z,99879.16
2018-05-03T12:31:55.421Z,99884.20
2018-05-03T12:34:22.081Z,99895.71
2018-05-03T12:36:48.718Z,99878.23
2018-05-03T12:39:15.383Z,99877.41
2018-05-03T12:41:48.393Z,99882.13
2018-05-03T12:44:15.426Z,99875.58
2018-05-03T12:46:42.111Z,99878.01
2018-05-03T12:49:08.663Z,99874.16
2018-05-03T12:51:36.404Z,99882.89
2018-05-03T12:54:03.006Z,99884.31
2018-05-03T12:56:29.569Z,99881.22
2018-05-03T12:58:56.586Z,99881.69
2018-05-03T13:01:24.613Z,99876.63
2018-05-03T13:03:51.308Z,99870.98
2018-05-03T13:06:18.206Z,99865.33
2018-05-03T13:08:44.930Z,99860.25
2018-05-03T13:11:18.910Z,99873.55
2018-05-03T13:13:45.551Z,99856.98
2018-05-03T13:16:12.357Z,99850.05
2018-05-03T13:18:39.020Z,99848.63
2018-05-03T13:21:11.810Z,99837.11
2018-05-03T13:23:38.577Z,99846.05
2018-05-03T13:26:05.122Z,99839.73
2018-05-03T13:28:31.882Z,99845.05
2018-05-03T13:31:05.235Z,99841.37
2018-05-03T13:33:31.965Z,99846.95
2018-05-03T13:35:58.557Z,99848.21
2018-05-03T13:38:25.370Z,99841.33
2018-05-03T13:40:53.011Z,99850.22
2018-05-03T13:43:19.849Z,99842.73
2018-05-03T13:45:46.533Z,99840.69
2018-05-03T13:48:13.828Z,99842.59
2018-05-03T13:50:41.706Z,99840.41
2018-05-03T13:53:08.441Z,99841.70
2018-05-03T13:55:35.233Z,99835.77
2018-05-03T13:58:01.929Z,99836.81
2018-05-03T14:00:28.534Z,99828.36
2018-05-03T14:02:56.132Z,99830.44
2018-05-03T14:05:22.857Z,99836.86
2018-05-03T14:07:49.491Z,99840.83
2018-05-03T14:10:22.716Z,99839.63
2018-05-03T14:12:49.522Z,99837.91
2018-05-03T14:15:16.190Z,99840.59
2018-05-03T14:17:42.822Z,99842.83
2018-05-03T14:20:09.498Z,99836.78
2018-05-03T14:22:36.891Z,99842.75
2018-05-03T14:25:03.437Z,99847.13
2018-05-03T14:27:30.063Z,99831.17
2018-05-03T14:29:56.762Z,99837.53
2018-05-03T14:32:29.822Z,99843.66
2018-05-03T14:34:56.501Z,99842.84
2018-05-03T14:37:23.303Z,99843.64
2018-05-03T14:39:56.731Z,99845.85
2018-05-03T14:42:29.151Z,99844.70
2018-05-03T14:44:56.228Z,99856.59
2018-05-03T14:47:22.859Z,99849.06
2018-05-03T14:49:49.515Z,99848.03
2018-05-03T14:52:17.273Z,99836.91
2018-05-03T14:54:44.190Z,99847.03
2018-05-03T14:57:10.937Z,99852.11
2018-05-03T14:59:37.618Z,99847.00
2018-05-03T15:02:05.225Z,99840.73
2018-05-03T15:04:31.965Z,99840.41
2018-05-03T15:06:58.970Z,99837.21
2018-05-03T15:09:25.703Z,99828.91
2018-05-03T15:11:55.916Z,99826.92
2018-05-03T15:14:22.680Z,99818.70
2018-05-03T15:16:49.811Z,99822.98
2018-05-03T15:19:16.573Z,99830.20
2018-05-03T15:21:47.063Z,99821.15
2018-05-03T15:24:13.728Z,99814.28
2018-05-03T15:26:40.292Z,99809.47
2018-05-03T15:29:08.347Z,99819.86
2018-05-03T15:31:38.776Z,99818.73
2018-05-03T15:34:05.744Z,99813.94
2018-05-03T15:36:32.378Z,99828.56
2018-05-03T15:39:00.041Z,99823.00
2018-05-03T15:41:27.614Z,99829.66
2018-05-03T15:43:54.354Z,99832.63
2018-05-03T15:46:20.981Z,99823.78
2018-05-03T15:48:48.012Z,99825.55
2018-05-03T15:51:18.095Z,99827.41
2018-05-03T15:53:44.745Z,99832.51
2018-05-03T15:56:11.474Z,99829.05
2018-05-03T15:58:38.155Z,99842.50
2018-05-03T16:01:08.298Z,99838.73
2018-05-03T16:03:35.117Z,99842.55
2018-05-03T16:06:01.884Z,99833.94
2018-05-03T16:08:28.721Z,99824.81
2018-05-03T16:10:58.834Z,99843.36
2018-05-03T16:13:25.814Z,99840.55
2018-05-03T16:15:52.498Z,99840.33
2018-05-03T16:18:19.191Z,99845.78
2018-05-03T16:20:52.367Z,99851.22
2018-05-03T16:23:19.358Z,99847.44
2018-05-03T16:25:46.470Z,99863.78
2018-05-03T16:28:13.289Z,99855.52
2018-05-03T16:30:43.282Z,99863.00
2018-05-03T16:33:09.986Z,99853.58
2018-05-03T16:35:37.817Z,99842.42
2018-05-03T16:38:14.977Z,99860.23
2018-05-03T16:40:41.788Z,99855.80
2018-05-03T16:43:08.306Z,99866.15
2018-05-03T16:45:34.878Z,99867.26
2018-05-03T16:48:01.450Z,99865.65
2018-05-03T16:50:31.506Z,99871.95
2018-05-03T16:52:58.286Z,99867.50
2018-05-03T16:55:24.933Z,99868.77
2018-05-03T16:57:51.700Z,99867.55
2018-05-03T17:00:18.324Z,99874.05
2018-05-03T17:02:44.875Z,99877.23
2018-05-03T17:05:11.558Z,99873.59
2018-05-03T17:07:38.208Z,99874.69
2018-05-03T17:10:12.514Z,99879.22
2018-05-03T17:12:39.162Z,99883.09
2018-05-03T17:15:05.826Z,99893.78
2018-05-03T17:17:32.635Z,99889.44
2018-05-03T17:20:02.944Z,99888.74
2018-05-03T17:22:29.682Z,99894.04
2018-05-03T17:24:56.265Z,99901.53
2018-05-03T17:27:22.914Z,99907.64
2018-05-03T17:29:50.513Z,99908.48
2018-05-03T17:32:17.109Z,99911.14
2018-05-03T17:34:43.822Z,99919.63
2018-05-03T17:37:10.426Z,99926.16
2018-05-03T17:39:37.181Z,99930.34
2018-05-03T17:42:03.853Z,99930.94
2018-05-03T17:44:30.635Z,99930.45
2018-05-03T17:46:57.243Z,99929.08
2018-05-03T17:49:23.950Z,99936.62
2018-05-03T17:52:00.962Z,99942.50
2018-05-03T17:54:27.696Z,99943.03
2018-05-03T17:56:54.322Z,99944.73
2018-05-03T17:59:20.974Z,99947.28
2018-05-03T18:01:52.564Z,99949.13
2018-05-03T18:04:19.209Z,99958.76
2018-05-03T18:06:45.858Z,99952.18
2018-05-03T18:09:12.578Z,99960.89
2018-05-03T18:11:45.078Z,99958.80
2018-05-03T18:14:11.811Z,99969.81
2018-05-03T18:16:38.534Z,99973.36
2018-05-03T18:19:05.103Z,99970.52
2018-05-03T18:21:35.205Z,99973.16
2018-05-03T18:24:01.928Z,99968.10
2018-05-03T18:26:28.581Z,99969.86
2018-05-03T18:28:55.179Z,99971.12
2018-05-03T18:31:22.837Z,99985.33
2018-05-03T18:33:49.433Z,99995.61
2018-05-03T18:36:16.164Z,99992.56
2018-05-03T18:38:43.221Z,99993.20
2018-05-03T18:41:20.211Z,99988.92
2018-05-03T18:43:46.755Z,99991.64
2018-05-03T18:46:13.285Z,99983.81
2018-05-03T18:48:39.849Z,99987.91
2018-05-03T18:51:09.805Z,99988.80
2018-05-03T18:53:36.598Z,99983.91
2018-05-03T18:56:03.260Z,99982.29
2018-05-03T18:58:30.418Z,99983.26
2018-05-03T19:01:02.234Z,99986.59
2018-05-03T19:03:28.851Z,99984.70
2018-05-03T19:05:56.052Z,99985.84
2018-05-03T19:08:22.571Z,99987.14
2018-05-03T19:10:52.356Z,99990.56
2018-05-03T19:13:19.186Z,99982.52
2018-05-03T19:15:45.686Z,99990.59
2018-05-03T19:18:12.183Z,99999.17
2018-05-03T19:20:42.847Z,100000.94
2018-05-03T19:23:09.871Z,100008.00
2018-05-03T19:25:36.599Z,100002.89
2018-05-03T19:28:03.846Z,100004.04
2018-05-03T19:30:36.051Z,100004.89
2018-05-03T19:33:02.632Z,100007.06
2018-05-03T19:35:29.695Z,100007.81
2018-05-03T19:37:56.327Z,100002.64
2018-05-03T19:40:27.146Z,100006.69
2018-05-03T19:42:53.878Z,100006.13
2018-05-03T19:45:20.840Z,100005.12
2018-05-03T19:47:47.472Z,100010.72
2018-05-03T19:50:15.194Z,100012.86
2018-05-03T19:52:41.727Z,100010.62
2018-05-03T19:55:08.390Z,100010.44
2018-05-03T19:57:35.084Z,100006.41
2018-05-03T20:00:02.881Z,100007.02
2018-05-03T20:02:29.598Z,100004.05
2018-05-03T20:04:56.346Z,100005.27
2018-05-03T20:07:23.053Z,100002.89
2018-05-03T20:09:49.717Z,99996.16
2018-05-03T20:12:16.463Z,100004.50
2018-05-03T20:14:43.172Z,100011.44
2018-05-03T20:17:09.651Z,100015.91
2018-05-03T20:19:37.501Z,100014.64
2018-05-03T20:22:04.116Z,100015.02
2018-05-03T20:24:30.762Z,100022.38
2018-05-03T20:26:57.877Z,100019.45
2018-05-03T20:29:24.543Z,100024.05
2018-05-03T20:31:51.769Z,100021.71
2018-05-03T20:34:18.343Z,100023.94
2018-05-03T20:36:44.876Z,100021.92
2018-05-03T20:39:11.535Z,100026.22
2018-05-03T20:41:38.269Z,100029.01
2018-05-03T20:44:04.867Z,100028.28
2018-05-03T20:46:31.500Z,100028.47
2018-05-03T20:48:58.567Z,100028.85
2018-05-03T20:51:29.057Z,100028.81
2018-05-03T20:53:55.750Z,100022.93
2018-05-03T20:56:22.767Z,100021.17
2018-05-03T20:58:49.705Z,100027.70
2018-05-03T21:01:24.585Z,100016.54
2018-05-03T21:03:51.297Z,100021.73
2018-05-03T21:06:18.735Z,100025.95
2018-05-03T21:08:45.329Z,100029.28
2018-05-03T21:11:15.129Z,100038.11
2018-05-03T21:13:41.814Z,100029.39
2018-05-03T21:16:08.487Z,100033.20
2018-05-03T21:18:35.231Z,100031.48
2018-05-03T21:21:07.102Z,100035.97
2018-05-03T21:23:34.010Z,100032.28
2018-05-03T21:26:01.473Z,100026.69
2018-05-03T21:28:28.417Z,100026.09
2018-05-03T21:31:00.932Z,100024.94
2018-05-03T21:33:27.768Z,100026.03
2018-05-03T21:35:54.406Z,100031.48
2018-05-03T21:38:21.277Z,100027.62
2018-05-03T21:40:49.237Z,100027.33
2018-05-03T21:43:15.979Z,100021.58
2018-05-03T21:45:42.528Z,100023.19
2018-05-03T21:48:09.265Z,100022.52
2018-05-03T21:50:39.301Z,100018.04
2018-05-03T21:53:06.306Z,100016.42
2018-05-03T21:55:33.249Z,100010.59
2018-05-03T21:57:59.913Z,100010.73
2018-05-03T22:00:26.838Z,100005.70
2018-05-03T22:02:53.570Z,100010.94
2018-05-03T22:05:20.162Z,100003.09
2018-05-03T22:07:46.709Z,100004.70
2018-05-03T22:10:13.604Z,99995.58
2018-05-03T22:12:40.142Z,100005.80
2018-05-03T22:15:06.881Z,100002.49
2018-05-03T22:17:33.570Z,100012.05
2018-05-03T22:20:03.683Z,100010.83
2018-05-03T22:22:30.440Z,100018.09
2018-05-03T22:24:58.394Z,100016.07
2018-05-03T22:27:25.202Z,100011.94
2018-05-03T22:29:52.998Z,100019.00
2018-05-03T22:32:19.804Z,100011.95
2018-05-03T22:34:46.500Z,100013.17
2018-05-03T22:37:13.129Z,100017.63
2018-05-03T22:39:40.832Z,100023.66
2018-05-03T22:42:07.778Z,100012.66
2018-05-03T22:44:34.441Z,100011.23
2018-05-03T22:47:01.150Z,100009.67
2018-05-03T22:49:29.040Z,100009.94
2018-05-03T22:51:55.734Z,100013.27
2018-05-03T22:54:22.422Z,100011.31
2018-05-03T22:56:49.021Z,100008.05
2018-05-03T22:59:18.635Z,100010.73
2018-05-03T23:01:45.314Z,100007.00
2018-05-03T23:04:11.986Z,100003.92
2018-05-03T23:06:38.570Z,100004.84
2018-05-03T23:09:08.521Z,99998.84
2018-05-03T23:11:35.180Z,100004.93
2018-05-03T23:14:01.897Z,100006.14
2018-05-03T23:16:28.468Z,100013.47
2018-05-03T23:18:58.656Z,100013.39
2018-05-03T23:21:25.349Z,100011.75
2018-05-03T23:23:52.030Z,100005.11
2018-05-03T23:26:18.731Z,100005.78
2018-05-03T23:28:45.426Z,100012.38
2018-05-03T23:31:12.088Z,100007.77
2018-05-03T23:33:38.717Z,100014.53
2018-05-03T23:36:05.273Z,100013.70
2018-05-03T23:38:31.942Z,100015.77
2018-05-03T23:41:04.883Z,100013.36
2018-05-03T23:43:31.396Z,100013.45
2018-05-03T23:45:58.061Z,100009.05
2018-05-03T23:48:24.656Z,100011.89
2018-05-03T23:50:51.494Z,100011.96
2018-05-03T23:53:18.132Z,100012.39
2018-05-03T23:55:44.703Z,100008.38
2018-05-03T23:58:11.441Z,100001.65
